createdAt,value
2022-08-09T00:00:00.517Z,86.20
2022-08-09T00:02:37.336Z,85.80
2022-08-09T00:06:18.917Z,85.70
2022-08-09T00:08:04.137Z,85.60
2022-08-09T00:10:38.690Z,85.70
2022-08-09T00:13:17.071Z,85.60
2022-08-09T00:15:58.143Z,85.60
2022-08-09T00:18:29.922Z,85.50
2022-08-09T00:20:58.626Z,85.40
2022-08-09T00:23:58.117Z,85.40
2022-08-09T00:26:14.493Z,85.30
2022-08-09T00:28:41.583Z,85.50
2022-08-09T00:31:58.153Z,85.20
2022-08-09T00:34:08.541Z,85.20
2022-08-09T00:36:37.974Z,85.20
2022-08-09T00:39:07.097Z,85.20
2022-08-09T00:44:16.132Z,85.30
2022-08-09T00:44:31.806Z,85.20
2022-08-09T00:47:05.681Z,85.20
2022-08-09T00:49:34.846Z,85.30
2022-08-09T00:52:06.221Z,85.20
2022-08-09T00:54:45.747Z,85.10
2022-08-09T00:57:13.806Z,85.10
2022-08-09T00:59:52.689Z,85.30
2022-08-09T01:02:25.381Z,85.80
2022-08-09T01:04:54.018Z,85.30
2022-08-09T01:08:01.101Z,85.30
2022-08-09T01:10:32.372Z,85.20
2022-08-09T01:13:03.977Z,85.10
2022-08-09T01:15:40.913Z,85.10
2022-08-09T01:18:29.690Z,85.10
2022-08-09T01:21:12.356Z,85.10
2022-08-09T01:24:01.721Z,85.10
2022-08-09T01:26:54.764Z,85.20
2022-08-09T01:29:41.096Z,85.20
2022-08-09T01:32:30.218Z,85.20
2022-08-09T01:35:07.037Z,85.10
2022-08-09T01:38:09.901Z,85.10
2022-08-09T01:40:33.855Z,85.10
2022-08-09T01:43:04.621Z,85.10
2022-08-09T01:45:33.962Z,85.10
2022-08-09T01:48:06.005Z,85.20
2022-08-09T01:50:36.711Z,85.30
2022-08-09T01:53:19.217Z,86.00
2022-08-09T01:55:47.965Z,85.70
2022-08-09T01:58:16.122Z,86.30
2022-08-09T02:00:46.302Z,85.40
2022-08-09T02:03:19.095Z,85.40
2022-08-09T02:06:03.758Z,85.40
2022-08-09T02:08:57.683Z,85.40
2022-08-09T02:11:23.698Z,86.20
2022-08-09T02:13:55.310Z,85.40
2022-08-09T02:17:00.080Z,85.50
2022-08-09T02:19:22.988Z,85.40
2022-08-09T02:21:55.179Z,85.40
2022-08-09T02:24:26.475Z,85.40
2022-08-09T02:26:55.650Z,85.30
2022-08-09T02:29:27.641Z,85.40
2022-08-09T02:32:01.271Z,85.40
2022-08-09T02:34:40.548Z,85.40
2022-08-09T02:37:21.333Z,85.40
2022-08-09T02:40:01.725Z,86.20
2022-08-09T02:42:37.616Z,85.40
2022-08-09T02:45:08.489Z,85.40
2022-08-09T02:47:58.066Z,85.60
2022-08-09T02:50:29.171Z,85.80
2022-08-09T02:53:03.891Z,85.50
2022-08-09T02:55:46.476Z,85.60
2022-08-09T02:58:35.807Z,85.60
2022-08-09T03:01:06.405Z,85.90
2022-08-09T03:04:13.273Z,85.90
2022-08-09T03:06:22.990Z,85.70
2022-08-09T03:08:52.886Z,85.70
2022-08-09T03:11:29.927Z,85.60
2022-08-09T03:14:10.119Z,85.50
2022-08-09T03:16:41.644Z,85.60
2022-08-09T03:19:14.601Z,85.60
2022-08-09T03:21:58.004Z,85.50
2022-08-09T03:24:31.183Z,85.50
2022-08-09T03:27:10.748Z,85.60
2022-08-09T03:29:57.260Z,85.60
2022-08-09T03:32:26.152Z,85.70
2022-08-09T03:34:53.920Z,85.60
2022-08-09T03:37:56.239Z,85.60
2022-08-09T03:40:13.055Z,85.60
2022-08-09T03:42:43.024Z,85.50
2022-08-09T03:45:10.987Z,85.60
2022-08-09T03:47:41.932Z,85.80
2022-08-09T03:50:12.343Z,85.70
2022-08-09T03:52:42.514Z,85.70
2022-08-09T03:55:10.604Z,85.70
2022-08-09T03:57:53.384Z,85.90
2022-08-09T04:00:24.993Z,85.80
2022-08-09T04:02:53.917Z,85.70
2022-08-09T04:05:27.575Z,85.80
2022-08-09T04:07:57.175Z,85.90
2022-08-09T04:10:28.362Z,85.90
2022-08-09T04:12:57.761Z,85.90
2022-08-09T04:15:40.591Z,85.80
2022-08-09T04:18:18.083Z,85.80
2022-08-09T04:20:49.822Z,85.90
2022-08-09T04:23:17.709Z,86.00
2022-08-09T04:25:51.866Z,86.00
2022-08-09T04:28:30.780Z,86.00
2022-08-09T04:31:09.140Z,86.00
2022-08-09T04:33:51.566Z,86.00
2022-08-09T04:36:24.605Z,86.00
2022-08-09T04:38:52.255Z,86.00
2022-08-09T04:41:19.423Z,85.90
2022-08-09T04:44:05.001Z,86.00
2022-08-09T04:46:57.514Z,86.00
2022-08-09T04:49:22.355Z,86.00
2022-08-09T04:51:57.458Z,86.00
2022-08-09T04:54:25.203Z,86.00
2022-08-09T04:56:52.106Z,86.10
2022-08-09T04:59:21.228Z,86.00
2022-08-09T05:01:49.843Z,86.20
2022-08-09T05:04:17.313Z,86.00
2022-08-09T05:06:45.609Z,86.00
2022-08-09T05:09:17.565Z,85.90
2022-08-09T05:11:44.422Z,85.90
2022-08-09T05:14:11.302Z,86.00
2022-08-09T05:16:58.516Z,85.90
2022-08-09T05:19:31.714Z,85.90
2022-08-09T05:22:36.171Z,85.90
2022-08-09T05:25:02.542Z,85.90
2022-08-09T05:27:31.130Z,85.90
2022-08-09T05:29:58.942Z,86.00
2022-08-09T05:32:26.420Z,86.10
2022-08-09T05:34:57.294Z,86.00
2022-08-09T05:37:25.527Z,86.00
2022-08-09T05:39:53.025Z,86.10
2022-08-09T05:42:31.342Z,86.30
2022-08-09T05:45:05.198Z,86.30
2022-08-09T05:47:33.204Z,86.40
2022-08-09T05:50:26.049Z,86.10
2022-08-09T05:52:53.637Z,86.20
2022-08-09T05:55:21.778Z,86.20
2022-08-09T05:57:56.847Z,86.40
2022-08-09T06:00:32.831Z,86.50
2022-08-09T06:03:01.087Z,86.40
2022-08-09T06:05:54.738Z,86.50
2022-08-09T06:08:24.799Z,87.00
2022-08-09T06:10:53.359Z,86.70
2022-08-09T06:13:21.103Z,86.80
2022-08-09T06:15:52.318Z,87.00
2022-08-09T06:18:25.938Z,87.30
2022-08-09T06:20:58.494Z,87.10
2022-08-09T06:23:57.302Z,87.30
2022-08-09T06:26:14.772Z,87.20
2022-08-09T06:28:48.415Z,87.50
2022-08-09T06:31:15.450Z,87.70
2022-08-09T06:33:48.822Z,87.70
2022-08-09T06:36:27.243Z,88.20
2022-08-09T06:38:57.880Z,88.50
2022-08-09T06:41:55.845Z,88.70
2022-08-09T06:44:18.237Z,88.40
2022-08-09T06:46:45.855Z,88.60
2022-08-09T06:49:16.212Z,88.50
2022-08-09T06:51:56.440Z,88.70
2022-08-09T06:54:23.597Z,88.60
2022-08-09T06:56:53.910Z,88.90
2022-08-09T07:00:48.978Z,89.00
2022-08-09T07:02:15.156Z,89.60
2022-08-09T07:04:48.618Z,90.00
2022-08-09T07:07:58.759Z,89.80
2022-08-09T07:10:14.141Z,90.00
2022-08-09T07:12:57.500Z,90.30
2022-08-09T07:16:38.931Z,90.30
2022-08-09T07:18:14.279Z,90.40
2022-08-09T07:20:46.083Z,90.30
2022-08-09T07:23:19.000Z,90.50
2022-08-09T07:25:52.209Z,90.50
2022-08-09T07:28:30.117Z,90.80
2022-08-09T07:31:02.148Z,90.90
2022-08-09T07:33:52.811Z,91.10
2022-08-09T07:36:19.815Z,90.80
2022-08-09T07:38:56.608Z,90.90
2022-08-09T07:41:33.060Z,90.90
2022-08-09T07:44:09.096Z,91.20
2022-08-09T07:46:42.120Z,91.00
2022-08-09T07:49:15.376Z,91.00
2022-08-09T07:52:04.613Z,91.10
2022-08-09T07:54:31.700Z,91.20
2022-08-09T07:56:58.810Z,91.00
2022-08-09T07:59:45.989Z,91.10
2022-08-09T08:02:19.860Z,91.00
2022-08-09T08:04:53.702Z,91.10
2022-08-09T08:08:43.056Z,91.10
2022-08-09T08:10:27.364Z,91.20
2022-08-09T08:13:03.700Z,91.30
2022-08-09T08:15:35.308Z,91.30
2022-08-09T08:18:05.908Z,91.20
2022-08-09T08:20:33.708Z,91.20
2022-08-09T08:23:15.752Z,91.20
2022-08-09T08:25:50.328Z,91.10
2022-08-09T08:28:26.147Z,91.20
2022-08-09T08:31:04.684Z,91.30
2022-08-09T08:33:49.674Z,91.20
2022-08-09T08:36:29.757Z,91.30
2022-08-09T08:38:58.893Z,91.20
2022-08-09T08:41:50.226Z,91.10
2022-08-09T08:44:26.997Z,91.30
2022-08-09T08:47:03.320Z,91.20
2022-08-09T08:49:46.301Z,91.20
2022-08-09T08:52:50.403Z,91.10
2022-08-09T08:55:05.743Z,91.20
2022-08-09T08:57:35.062Z,91.30
2022-08-09T09:00:12.778Z,91.20
2022-08-09T09:02:52.309Z,91.30
2022-08-09T09:05:22.169Z,91.40
2022-08-09T09:08:02.617Z,91.40
2022-08-09T09:10:31.809Z,91.50
2022-08-09T09:12:58.789Z,91.50
2022-08-09T09:15:28.308Z,90.90
2022-08-09T09:17:56.186Z,90.90
2022-08-09T09:20:23.103Z,91.20
2022-08-09T09:22:54.500Z,91.20
2022-08-09T09:26:01.500Z,91.30
2022-08-09T09:28:21.306Z,91.50
2022-08-09T09:31:17.593Z,91.70
2022-08-09T09:34:14.240Z,91.90
2022-08-09T09:36:51.307Z,92.40
2022-08-09T09:39:50.528Z,92.80
2022-08-09T09:42:22.447Z,93.60
2022-08-09T09:44:59.116Z,93.80
2022-08-09T09:47:28.482Z,95.40
2022-08-09T09:50:15.293Z,96.10
2022-08-09T09:52:54.365Z,96.40
2022-08-09T09:55:29.365Z,94.90
2022-08-09T09:58:15.715Z,95.40
2022-08-09T10:00:54.228Z,92.90
2022-08-09T10:03:42.743Z,95.10
2022-08-09T10:06:10.254Z,94.80
2022-08-09T10:08:43.242Z,92.50
2022-08-09T10:14:27.456Z,87.70
2022-08-09T10:17:05.376Z,84.80
2022-08-09T10:19:45.820Z,81.20
2022-08-09T10:22:13.587Z,83.20
2022-08-09T10:24:40.998Z,81.60
2022-08-09T10:27:17.021Z,81.90
2022-08-09T10:30:43.804Z,80.60
2022-08-09T10:32:42.317Z,83.30
2022-08-09T10:35:10.284Z,81.20
2022-08-09T10:37:38.242Z,78.00
2022-08-09T10:40:06.638Z,72.40
2022-08-09T10:42:39.400Z,76.40
2022-08-09T10:45:16.674Z,76.20
2022-08-09T10:48:19.450Z,74.80
2022-08-09T10:51:09.349Z,68.60
2022-08-09T10:53:54.217Z,71.80
2022-08-09T10:56:28.009Z,71.90
2022-08-09T10:58:57.340Z,72.40
2022-08-09T11:03:14.075Z,69.90
2022-08-09T11:04:32.017Z,70.10
2022-08-09T11:07:00.921Z,68.70
2022-08-09T11:09:48.049Z,68.80
2022-08-09T11:12:20.153Z,67.90
2022-08-09T11:14:54.869Z,67.00
2022-08-09T11:17:23.746Z,67.70
2022-08-09T11:20:22.303Z,67.90
2022-08-09T11:22:56.913Z,66.70
2022-08-09T11:25:44.680Z,64.50
2022-08-09T11:28:33.955Z,65.10
2022-08-09T11:31:33.929Z,62.70
2022-08-09T11:34:06.438Z,60.20
2022-08-09T11:36:41.864Z,59.20
2022-08-09T11:39:11.226Z,60.00
2022-08-09T11:41:40.300Z,60.70
2022-08-09T11:44:07.820Z,57.00
2022-08-09T11:46:51.095Z,57.40
2022-08-09T11:49:27.996Z,57.90
2022-08-09T11:52:48.894Z,54.60
2022-08-09T11:55:11.267Z,55.80
2022-08-09T11:58:00.166Z,55.50
2022-08-09T12:00:28.127Z,53.80
2022-08-09T12:02:56.612Z,54.80
2022-08-09T12:05:39.704Z,54.40
2022-08-09T12:08:12.244Z,55.30
2022-08-09T12:10:44.021Z,54.00
2022-08-09T12:14:10.791Z,48.30
2022-08-09T12:16:37.798Z,50.80
2022-08-09T12:19:08.092Z,49.30
2022-08-09T12:21:48.687Z,49.60
2022-08-09T12:24:23.920Z,50.50
2022-08-09T12:28:58.370Z,51.70
2022-08-09T12:29:52.233Z,52.70
2022-08-09T12:32:25.899Z,53.60
2022-08-09T12:34:59.476Z,52.50
2022-08-09T12:37:44.313Z,54.00
2022-08-09T12:40:20.545Z,52.30
2022-08-09T12:42:50.157Z,51.50
2022-08-09T12:45:33.951Z,50.60
2022-08-09T12:48:06.052Z,50.50
2022-08-09T12:50:38.921Z,49.20
2022-08-09T12:53:35.015Z,48.50
2022-08-09T12:56:12.894Z,49.90
2022-08-09T12:59:10.936Z,48.80
2022-08-09T13:01:47.095Z,47.90
2022-08-09T13:04:36.185Z,49.10
2022-08-09T13:07:13.366Z,50.10
2022-08-09T13:09:55.081Z,51.00
2022-08-09T13:12:23.174Z,50.90
2022-08-09T13:14:54.107Z,52.10
2022-08-09T13:17:44.503Z,53.10
2022-08-09T13:20:18.673Z,51.20
2022-08-09T13:23:05.606Z,52.60
2022-08-09T13:25:42.729Z,53.50
2022-08-09T13:28:24.537Z,52.70
2022-08-09T13:32:19.598Z,49.70
2022-08-09T13:33:58.832Z,53.10
2022-08-09T13:36:42.268Z,52.40
2022-08-09T13:41:19.295Z,53.90
2022-08-09T13:42:02.738Z,51.50
2022-08-09T13:44:30.954Z,54.50
2022-08-09T13:47:26.520Z,54.30
2022-08-09T13:49:58.255Z,51.50
2022-08-09T13:52:29.728Z,54.10
2022-08-09T13:55:00.993Z,53.60
2022-08-09T13:57:40.266Z,53.60
2022-08-09T14:00:20.402Z,53.80
2022-08-09T14:03:03.413Z,55.20
2022-08-09T14:06:00.133Z,56.20
2022-08-09T14:08:26.879Z,55.10
2022-08-09T14:10:57.173Z,55.50
2022-08-09T14:14:15.643Z,57.50
2022-08-09T14:16:18.895Z,56.10
2022-08-09T14:18:49.516Z,56.40
2022-08-09T14:21:20.909Z,57.30
2022-08-09T14:23:56.599Z,56.10
2022-08-09T14:26:30.122Z,55.80
2022-08-09T14:29:07.746Z,55.90
2022-08-09T14:31:53.855Z,56.40
2022-08-09T14:34:31.354Z,57.70
2022-08-09T14:37:06.095Z,58.00
2022-08-09T14:39:47.455Z,58.40
2022-08-09T14:42:28.900Z,58.80
2022-08-09T14:44:59.412Z,59.20
2022-08-09T14:47:44.676Z,58.40
2022-08-09T14:50:16.297Z,58.00
2022-08-09T14:52:47.806Z,57.90
2022-08-09T14:55:19.874Z,58.60
2022-08-09T14:57:50.398Z,58.40
2022-08-09T15:00:18.009Z,58.60
2022-08-09T15:02:47.268Z,58.60
2022-08-09T15:05:16.105Z,58.50
2022-08-09T15:07:45.543Z,58.90
2022-08-09T15:10:25.075Z,58.30
2022-08-09T15:12:55.847Z,57.30
2022-08-09T15:15:28.443Z,57.70
2022-08-09T15:17:56.566Z,59.00
2022-08-09T15:21:57.379Z,59.20
2022-08-09T15:24:03.599Z,59.20
2022-08-09T15:26:00.721Z,59.00
2022-08-09T15:28:28.815Z,59.40
2022-08-09T15:31:09.833Z,58.50
2022-08-09T15:34:15.368Z,59.40
2022-08-09T15:36:29.081Z,59.40
2022-08-09T15:38:57.335Z,60.00
2022-08-09T15:41:32.051Z,60.00
2022-08-09T15:44:01.895Z,60.10
2022-08-09T15:46:33.871Z,60.00
2022-08-09T15:49:22.403Z,60.60
2022-08-09T15:52:04.890Z,60.70
2022-08-09T15:54:46.390Z,60.90
2022-08-09T15:57:35.951Z,60.60
2022-08-09T16:00:09.572Z,60.90
2022-08-09T16:02:41.563Z,61.30
2022-08-09T16:05:09.054Z,61.10
2022-08-09T16:07:39.569Z,61.60
2022-08-09T16:10:17.281Z,61.70
2022-08-09T16:13:05.504Z,61.70
2022-08-09T16:16:11.089Z,61.60
2022-08-09T16:18:35.940Z,61.70
2022-08-09T16:21:02.798Z,62.00
2022-08-09T16:23:29.790Z,61.90
2022-08-09T16:26:01.075Z,61.90
2022-08-09T16:28:29.869Z,62.30
2022-08-09T16:30:58.738Z,62.40
2022-08-09T16:33:26.553Z,62.20
2022-08-09T16:35:58.435Z,62.30
2022-08-09T16:38:27.747Z,62.50
2022-08-09T16:40:56.926Z,62.40
2022-08-09T16:43:26.618Z,62.40
2022-08-09T16:45:54.154Z,62.40
2022-08-09T16:48:42.616Z,62.60
2022-08-09T16:51:14.427Z,62.70
2022-08-09T16:54:22.464Z,62.60
2022-08-09T16:56:32.269Z,63.10
2022-08-09T16:59:01.078Z,62.50
2022-08-09T17:01:33.675Z,62.60
2022-08-09T17:04:01.144Z,63.40
2022-08-09T17:06:32.056Z,63.50
2022-08-09T17:09:16.124Z,63.50
2022-08-09T17:11:52.590Z,63.40
2022-08-09T17:14:26.945Z,63.30
2022-08-09T17:17:00.102Z,63.80
2022-08-09T17:19:47.235Z,64.10
2022-08-09T17:22:16.033Z,64.00
2022-08-09T17:24:55.851Z,64.30
2022-08-09T17:27:32.205Z,64.50
2022-08-09T17:29:59.142Z,64.40
2022-08-09T17:32:26.759Z,64.30
2022-08-09T17:35:10.869Z,64.50
2022-08-09T17:38:11.062Z,64.90
2022-08-09T17:40:32.726Z,65.10
2022-08-09T17:43:10.722Z,65.10
2022-08-09T17:46:04.115Z,65.20
2022-08-09T17:48:38.795Z,65.30
2022-08-09T17:51:18.026Z,65.10
2022-08-09T17:53:52.175Z,65.20
2022-08-09T17:56:26.722Z,65.50
2022-08-09T17:58:56.095Z,65.30
2022-08-09T18:01:23.809Z,65.60
2022-08-09T18:03:52.033Z,65.60
2022-08-09T18:06:30.932Z,65.90
2022-08-09T18:08:58.756Z,66.00
2022-08-09T18:11:26.041Z,65.70
2022-08-09T18:13:59.768Z,66.00
2022-08-09T18:16:30.932Z,66.10
2022-08-09T18:18:59.471Z,66.20
2022-08-09T18:21:41.603Z,66.40
2022-08-09T18:24:14.583Z,66.20
2022-08-09T18:26:46.677Z,66.30
2022-08-09T18:30:39.000Z,66.50
2022-08-09T18:32:05.698Z,66.40
2022-08-09T18:34:35.601Z,66.50
2022-08-09T18:37:03.564Z,66.50
2022-08-09T18:39:32.330Z,66.60
2022-08-09T18:42:01.195Z,66.40
2022-08-09T18:44:29.136Z,66.50
2022-08-09T18:47:05.100Z,66.50
2022-08-09T18:49:41.471Z,66.50
2022-08-09T18:52:14.528Z,66.80
2022-08-09T18:54:52.352Z,66.80
2022-08-09T18:57:22.332Z,66.90
2022-08-09T18:59:55.512Z,66.80
2022-08-09T19:02:31.974Z,66.90
2022-08-09T19:05:19.872Z,67.00
2022-08-09T19:08:03.967Z,67.20
2022-08-09T19:10:38.909Z,67.00
2022-08-09T19:13:20.708Z,67.10
2022-08-09T19:15:56.361Z,67.00
2022-08-09T19:18:33.079Z,67.10
2022-08-09T19:21:09.127Z,67.10
2022-08-09T19:24:32.452Z,67.20
2022-08-09T19:26:31.214Z,67.20
2022-08-09T19:29:01.522Z,67.30
2022-08-09T19:31:30.597Z,67.30
2022-08-09T19:33:58.336Z,67.30
2022-08-09T19:36:30.775Z,67.50
2022-08-09T19:39:01.126Z,67.40
2022-08-09T19:41:33.507Z,67.40
2022-08-09T19:44:03.556Z,67.40
2022-08-09T19:46:35.096Z,67.40
2022-08-09T19:50:08.986Z,67.50
2022-08-09T19:51:55.919Z,67.30
2022-08-09T19:54:27.161Z,67.40
2022-08-09T19:56:55.929Z,67.40
2022-08-09T19:59:59.595Z,67.50
2022-08-09T20:02:18.252Z,67.60
2022-08-09T20:04:59.351Z,67.60
2022-08-09T20:07:56.949Z,67.60
2022-08-09T20:10:17.069Z,67.60
2022-08-09T20:12:45.982Z,67.70
2022-08-09T20:16:34.221Z,67.60
2022-08-09T20:18:00.065Z,67.60
2022-08-09T20:20:27.129Z,67.60
2022-08-09T20:22:56.306Z,67.70
2022-08-09T20:25:24.073Z,67.70
2022-08-09T20:27:52.389Z,67.70
2022-08-09T20:30:21.663Z,67.60
2022-08-09T20:32:52.218Z,67.80
2022-08-09T20:35:20.229Z,67.90
2022-08-09T20:38:20.646Z,67.90
2022-08-09T20:40:34.485Z,67.90
2022-08-09T20:43:18.404Z,67.90
2022-08-09T20:45:57.603Z,67.90
2022-08-09T20:48:30.818Z,67.70
2022-08-09T20:50:59.095Z,68.40
2022-08-09T20:53:36.413Z,68.40
2022-08-09T20:56:20.018Z,68.10
2022-08-09T20:58:49.379Z,68.60
2022-08-09T21:01:34.794Z,68.10
2022-08-09T21:05:49.245Z,68.40
2022-08-09T21:06:51.196Z,68.30
2022-08-09T21:09:32.942Z,68.30
2022-08-09T21:14:36.965Z,68.40
2022-08-09T21:18:22.112Z,68.30
2022-08-09T21:20:18.755Z,68.40
2022-08-09T21:22:42.357Z,68.30
2022-08-09T21:25:38.022Z,68.20
2022-08-09T21:28:07.392Z,68.30
2022-08-09T21:30:40.278Z,68.40
2022-08-09T21:33:09.301Z,68.40
2022-08-09T21:35:40.616Z,68.30
2022-08-09T21:38:09.088Z,68.40
2022-08-09T21:40:36.525Z,68.30
2022-08-09T21:43:06.069Z,68.40
2022-08-09T21:45:38.874Z,68.40
2022-08-09T21:48:07.657Z,68.40
2022-08-09T21:50:38.552Z,68.50
2022-08-09T21:53:27.577Z,68.60
2022-08-09T21:55:54.832Z,68.60
2022-08-09T21:58:29.231Z,68.50
2022-08-09T22:00:58.398Z,68.60
2022-08-09T22:03:26.177Z,68.60
2022-08-09T22:05:54.378Z,68.60
2022-08-09T22:08:23.044Z,68.60
2022-08-09T22:11:50.563Z,68.70
2022-08-09T22:13:42.236Z,68.70
2022-08-09T22:16:10.969Z,68.80
2022-08-09T22:18:53.121Z,68.80
2022-08-09T22:21:24.378Z,68.90
2022-08-09T22:24:01.320Z,68.90
2022-08-09T22:26:35.296Z,68.90
2022-08-09T22:29:07.596Z,68.90
2022-08-09T22:31:37.415Z,69.10
2022-08-09T22:34:09.702Z,69.00
2022-08-09T22:36:45.551Z,69.10
2022-08-09T22:39:20.710Z,69.10
2022-08-09T22:42:01.600Z,69.20
2022-08-09T22:44:32.896Z,69.20
2022-08-09T22:48:14.266Z,69.20
2022-08-09T22:49:47.765Z,69.30
2022-08-09T22:52:19.805Z,69.30
2022-08-09T22:54:48.086Z,69.30
2022-08-09T22:57:14.994Z,69.50
2022-08-09T22:59:55.194Z,69.50
2022-08-09T23:02:25.794Z,69.60
2022-08-09T23:04:55.398Z,69.50
2022-08-09T23:08:21.847Z,69.60
2022-08-09T23:10:30.741Z,69.60
2022-08-09T23:12:58.219Z,69.60
2022-08-09T23:15:25.164Z,69.60
2022-08-09T23:17:52.710Z,69.60
2022-08-09T23:20:19.729Z,69.70
2022-08-09T23:22:46.614Z,69.80
2022-08-09T23:25:13.636Z,69.80
2022-08-09T23:28:14.369Z,69.90
2022-08-09T23:30:28.484Z,70.00
2022-08-09T23:32:55.389Z,70.20
2022-08-09T23:35:22.520Z,70.10
2022-08-09T23:37:49.403Z,70.00
2022-08-09T23:40:17.190Z,70.10
2022-08-09T23:42:44.218Z,70.20
2022-08-09T23:45:11.385Z,70.10
2022-08-09T23:47:58.281Z,70.30
2022-08-09T23:50:25.602Z,70.40
2022-08-09T23:52:52.592Z,70.40
2022-08-09T23:55:19.500Z,70.50
2022-08-09T23:58:06.671Z,70.60
